Date,TemperatureHighF,TemperatureAvgF,TemperatureLowF,DewpointHighF,DewpointAvgF,DewpointLowF,HumidityHigh,HumidityAvg,HumidityLow,PressureMaxIn,PressureMinIn,WindSpeedMaxMPH,WindSpeedAvgMPH,GustSpeedMaxMPH,PrecipitationSumIn
2013-1-1,48.7,43.7,38.1,23.6,17.7,9.4,45,35,25,29.15,29.03,6,2,6,0.00
2013-1-2,42.3,36.5,31.5,20.4,17.2,7.3,55,45,34,29.33,29.09,5,1,5,0.00
2013-1-3,41.0,33.5,30.0,13.1,7.7,3.8,44,33,29,29.33,29.24,4,2,6,0.00
2013-1-4,45.0,37.4,28.8,13.7,9.2,4.6,37,31,27,29.33,29.24,6,4,10,0.00
2013-1-5,34.5,34.5,34.5,6.3,6.3,6.3,30,30,30,29.47,29.30,5,3,8,0.00
2013-1-6,34.5,34.5,34.5,6.3,6.3,6.3,30,30,30,29.30,29.15,5,2,8,0.00
2013-1-7,34.5,34.5,34.5,6.3,6.3,6.3,30,30,30,29.53,29.27,2,2,2,0.00
2013-1-8,34.5,34.5,34.5,6.3,6.3,6.3,30,30,30,29.53,29.45,2,2,2,0.00
2013-1-9,34.5,34.5,34.5,6.3,6.3,6.3,30,30,30,29.50,29.39,2,2,2,0.00
2013-1-10,34.5,34.5,34.5,6.3,6.3,6.3,30,30,30,29.65,29.50,2,2,2,0.00
2013-1-11,41.5,35.2,34.5,39.9,10.0,6.3,94,37,30,29.56,29.21,2,2,2,0.04
2013-1-12,57.7,45.5,37.6,46.7,40.4,35.7,96,84,51,29.30,29.21,2,2,2,0.04
2013-1-13,64.8,56.2,47.5,59.9,51.0,-99.9,98,85,65,29.24,29.12,0,0,0,0.00
2013-1-14,63.1,54.8,39.2,58.3,47.3,33.5,88,76,62,29.39,29.12,0,0,0,0.08
2013-1-15,39.2,37.2,36.0,38.3,35.5,33.4,98,94,83,29.42,29.24,0,0,0,1.16
2013-1-16,45.0,38.4,34.7,44.1,37.7,34.2,98,97,91,29.24,29.00,0,0,0,0.58
2013-1-17,46.6,39.3,32.9,45.5,37.8,30.5,98,94,84,29.24,29.09,0,0,0,0.50
2013-1-18,43.7,34.2,29.7,33.5,17.3,8.6,98,52,25,29.56,29.21,0,0,0,0.09
2013-1-19,51.1,39.9,28.9,21.6,15.5,11.9,55,37,29,29.53,29.15,0,0,0,0.04
2013-1-20,59.0,47.0,37.9,22.1,13.6,2.6,40,26,19,29.18,29.00,0,0,0,0.04
2013-1-21,51.4,40.0,30.2,12.7,4.4,-2.8,28,22,19,29.18,28.91,0,0,0,0.00
2013-1-22,30.2,22.2,15.1,-2.8,-8.9,-13.7,26,23,21,29.36,29.06,0,0,0,0.00
2013-1-23,32.2,21.6,13.3,5.8,-8.3,-15.0,53,25,23,29.42,29.21,0,0,0,0.00
2013-1-24,30.4,19.9,13.5,7.8,-1.3,-12.2,68,40,24,29.59,29.15,0,0,0,0.00
2013-1-25,25.3,19.3,14.4,10.1,-0.4,-10.8,62,42,29,29.59,29.15,0,0,0,0.00
2013-1-26,39.6,28.3,19.0,16.5,10.9,7.6,66,49,32,29.53,29.15,0,0,0,0.00
2013-1-27,40.5,31.0,25.0,15.9,12.0,8.1,66,46,30,29.65,29.50,0,0,0,0.00
2013-1-28,52.0,39.1,30.9,38.9,28.1,11.9,95,66,43,29.53,29.21,0,0,0,0.00
2013-1-29,73.6,60.5,51.6,44.3,39.4,34.9,70,48,30,29.27,29.12,0,0,0,0.00
2013-1-30,68.7,62.0,56.7,61.3,53.4,41.0,98,75,50,29.12,28.44,0,0,0,0.00
2013-1-31,62.1,41.5,29.7,61.5,15.3,1.6,98,37,22,29.03,28.44,0,0,0,0.00
2013-2-1,33.4,26.6,16.9,17.0,-1.9,-10.8,57,28,23,29.45,28.91,0,0,0,0.00
2013-2-2,34.9,24.2,16.5,20.1,2.9,-9.7,74,41,25,29.45,29.09,0,0,0,0.00
2013-2-3,41.2,32.0,24.6,20.8,13.2,3.3,72,47,31,29.09,28.94,0,0,0,0.00
2013-2-4,38.3,31.6,24.1,9.5,4.5,-1.0,33,31,29,29.21,29.00,0,0,0,0.00
2013-2-5,58.8,44.7,34.9,22.9,16.8,7.4,40,33,25,29.06,28.94,0,0,0,0.00
2013-2-6,55.4,42.1,32.4,22.2,16.9,9.8,55,37,23,29.42,29.03,0,0,0,0.00
2013-2-7,40.5,35.4,31.5,16.2,12.5,9.2,48,39,31,29.50,29.27,0,0,0,0.00
2013-2-8,50.0,38.4,31.6,35.2,24.3,9.7,94,60,32,29.27,28.91,0,0,0,0.00
2013-2-9,48.6,36.8,28.9,10.9,5.2,-1.9,35,27,19,29.47,29.09,0,0,0,0.00
2013-2-10,46.8,36.0,25.9,21.6,4.8,-4.8,56,27,22,29.56,29.33,0,0,0,0.00
2013-2-11,56.3,47.0,34.3,46.4,34.0,11.1,98,65,18,29.33,28.91,0,0,0,0.00
2013-2-12,63.0,50.5,41.5,19.6,12.9,9.7,28,22,17,29.12,28.97,0,0,0,0.00
2013-2-13,46.6,39.2,33.8,32.1,19.6,7.3,89,49,22,29.06,28.80,0,0,0,0.00
2013-2-14,54.1,41.1,32.4,31.2,18.3,9.4,88,44,21,29.15,28.91,0,0,0,2.65
2013-2-15,62.4,46.8,35.2,29.3,19.8,12.0,66,36,21,29.18,29.00,0,0,0,0.04
2013-2-16,39.0,34.9,27.0,33.9,18.7,1.6,90,54,31,29.12,28.97,5,2,6,0.00
2013-2-17,31.3,25.5,20.5,1.9,-3.6,-99.9,35,27,23,29.33,29.00,11,5,13,0.00
2013-2-18,48.0,33.6,20.3,8.9,0.9,-8.7,29,24,19,29.45,29.27,8,3,10,0.00
2013-2-19,46.4,38.4,34.5,36.0,19.7,5.8,84,50,26,29.27,28.88,8,4,13,0.00
2013-2-20,48.2,35.4,26.6,10.3,3.1,-3.3,31,25,19,29.24,29.00,9,3,12,0.00
2013-2-21,34.2,30.7,23.7,6.0,2.3,-1.0,33,29,27,29.30,29.24,4,4,4,0.00
2013-2-22,34.0,34.0,34.0,3.6,3.6,3.6,27,27,27,29.30,29.30,4,4,4,0.00
2013-2-23,34.0,34.0,34.0,3.6,3.6,3.6,27,27,27,29.30,29.30,4,4,4,0.00
2013-2-24,34.0,34.0,34.0,3.6,3.6,3.6,27,27,27,29.30,29.30,4,4,4,0.00
2013-2-25,34.0,34.0,34.0,3.6,3.6,3.6,27,27,27,29.30,29.30,4,4,4,0.00
2013-2-26,34.0,34.0,34.0,3.6,3.6,3.6,27,27,27,29.30,29.30,4,4,4,0.00
2013-2-27,34.0,34.0,34.0,3.6,3.6,3.6,27,27,27,29.30,29.30,4,4,4,0.00
2013-2-28,34.0,34.0,34.0,3.6,3.6,3.6,27,27,27,29.30,29.30,4,4,4,0.00
2013-3-1,34.0,34.0,34.0,3.6,3.6,3.6,27,27,27,29.30,29.30,4,4,4,0.00
2013-3-2,34.0,34.0,34.0,3.6,3.6,3.6,27,27,27,29.30,29.30,4,4,4,0.00
2013-3-3,34.0,34.0,34.0,3.6,3.6,3.6,27,27,27,29.30,29.30,4,4,4,0.00
2013-3-4,34.0,34.0,34.0,3.6,3.6,3.6,27,27,27,29.30,29.30,4,4,4,0.00
2013-3-5,34.0,34.0,34.0,3.6,3.6,3.6,27,27,27,29.30,29.30,4,4,4,0.00
2013-3-6,34.0,34.0,34.0,3.6,3.6,3.6,27,27,27,29.30,29.30,4,4,4,0.00
2013-3-9,47.1,43.0,41.2,9.2,4.8,-99.9,23,21,19,29.42,29.39,3,1,3,0.08
2013-3-10,64.4,50.3,37.2,21.5,12.6,4.9,29,22,17,29.42,29.30,6,2,6,0.17
2013-3-11,60.1,50.5,38.8,43.3,28.0,10.6,64,42,22,29.33,29.06,7,3,8,0.04
2013-3-12,66.7,55.7,40.3,62.3,39.7,17.1,98,62,24,29.09,28.85,7,3,10,1.24
2013-3-13,52.7,41.6,31.8,18.1,11.4,1.3,40,29,21,29.21,29.03,10,4,15,0.17
2013-3-14,52.5,38.2,28.4,12.2,5.1,1.1,32,25,18,29.30,29.15,11,5,13,0.00
2013-3-15,63.3,47.1,33.3,19.6,10.3,-0.6,26,22,18,29.24,28.94,8,3,13,0.00
2013-3-16,73.2,54.8,42.8,51.1,30.5,16.1,79,42,23,29.00,28.77,8,2,11,0.25
2013-3-17,42.8,36.6,31.8,32.0,29.5,27.1,86,75,63,29.36,29.00,3,1,5,0.08
2013-3-18,34.3,32.3,31.1,31.3,29.3,27.6,95,88,80,29.39,29.03,5,1,6,0.04
2013-3-19,58.3,42.1,30.9,42.7,27.1,15.3,98,68,19,29.03,28.88,9,2,11,0.58
2013-3-22,55.2,44.1,34.0,12.5,5.2,-99.9,25,20,18,29.12,29.00,8,3,10,0.00
2013-3-23,61.0,44.0,31.8,15.6,6.9,-0.9,33,22,16,29.18,29.03,6,2,8,0.00
2013-3-24,43.2,36.0,32.2,20.3,11.6,4.5,61,38,20,29.12,28.85,7,2,8,0.00
2013-3-25,35.6,32.4,32.4,18.9,16.0,-99.9,57,53,43,28.85,28.82,6,1,6,0.08
2013-3-26,47.3,39.4,31.6,19.1,15.4,13.9,50,38,29,29.03,28.85,8,4,10,0.29
2013-3-27,45.9,45.9,45.9,15.4,15.4,15.4,29,29,29,29.03,29.03,6,6,7,0.29
2013-3-28,45.9,45.9,45.9,15.4,15.4,15.4,29,29,29,29.03,29.03,6,6,7,0.29
2013-3-29,45.9,45.9,45.9,15.4,15.4,15.4,29,29,29,29.03,29.03,6,6,7,0.29
2013-3-30,45.9,45.9,45.9,15.4,15.4,15.4,29,29,29,29.03,29.03,6,6,7,0.29
2013-3-31,45.9,45.9,45.9,15.4,15.4,15.4,29,29,29,29.03,29.03,6,6,7,0.29
2013-4-1,45.9,45.9,45.9,15.4,15.4,15.4,29,29,29,29.03,29.03,6,6,7,0.29
2013-4-2,45.9,45.9,45.9,15.4,15.4,15.4,29,29,29,29.03,29.03,6,6,7,0.29
2013-4-3,45.9,45.9,45.9,15.4,15.4,15.4,29,29,29,29.03,29.03,6,6,7,0.29
2013-4-4,45.9,45.9,45.9,15.4,15.4,15.4,29,29,29,29.03,29.03,6,6,7,0.29
2013-4-5,45.9,45.9,45.9,15.4,15.4,15.4,29,29,29,29.03,29.03,6,6,7,0.29
2013-4-6,45.9,45.9,45.9,15.4,15.4,15.4,29,29,29,29.03,29.03,6,6,7,0.29
2013-4-7,75.6,54.3,45.9,28.5,19.0,15.4,29,26,15,29.21,29.03,8,5,10,0.29
2013-4-8,86.2,69.7,56.7,32.6,27.7,22.8,30,22,13,29.24,29.12,8,3,10,0.00
2013-4-9,91.4,76.2,63.7,37.5,33.7,27.0,34,22,13,29.27,29.12,7,3,8,0.00
2013-4-10,98.6,81.1,68.2,40.3,34.2,28.2,28,19,11,29.18,29.00,8,4,9,0.00
2013-4-11,94.1,76.4,64.2,42.5,38.1,31.8,41,26,14,29.06,28.91,5,2,5,0.00
2013-4-12,87.1,70.4,61.3,63.8,44.4,18.5,96,47,16,28.91,28.74,6,4,6,0.00
2013-4-13,80.1,63.1,50.2,28.1,20.5,14.1,27,20,15,29.09,28.88,5,3,8,0.00
2013-4-14,80.1,65.7,52.2,28.0,20.1,10.0,25,18,15,29.24,29.09,6,3,6,0.00
2013-4-15,61.5,59.1,54.7,52.4,36.7,24.6,79,48,25,29.39,29.21,3,2,4,0.00
2013-4-16,77.7,63.3,54.0,53.5,46.6,39.1,89,59,25,29.45,29.30,4,2,6,0.00
2013-4-17,90.5,72.6,62.6,50.5,44.7,35.6,62,40,17,29.36,29.27,5,2,6,0.00
2013-4-18,85.1,69.4,59.9,60.5,46.6,33.6,91,48,19,29.33,29.15,5,2,8,0.00
2013-4-19,75.0,66.1,55.6,63.3,53.6,33.4,98,66,41,29.15,28.80,6,3,10,0.00
2013-4-20,72.1,55.6,43.7,32.3,18.1,9.1,41,24,15,29.42,28.91,7,3,11,0.00
2013-4-21,64.8,48.8,40.5,20.3,12.7,8.1,29,23,18,29.65,29.42,4,3,6,0.00
2013-4-22,66.9,49.9,38.5,26.1,20.0,11.5,51,32,17,29.65,29.45,6,3,6,0.00
2013-4-23,72.9,55.1,45.1,31.6,27.5,23.8,46,36,22,29.47,29.24,4,2,4,0.00
2013-4-24,82.8,63.5,47.8,45.7,37.5,31.0,76,43,19,29.27,28.97,6,2,13,0.00
2013-4-25,78.3,58.3,44.6,40.2,23.1,14.3,51,27,15,29.42,29.12,4,4,6,0.00
2013-4-26,76.3,59.5,46.9,25.8,19.6,12.7,29,22,15,29.56,29.42,4,4,5,0.00
2013-4-27,80.1,61.8,48.7,33.7,25.4,17.4,42,26,15,29.50,29.39,4,4,5,0.00
2013-4-28,57.9,54.7,51.8,47.3,35.4,26.3,71,49,35,29.39,29.27,4,4,5,0.00
2013-4-29,64.0,55.2,51.6,55.3,49.8,-99.9,94,83,61,29.27,29.15,4,2,5,0.00
2013-4-30,65.7,57.4,52.7,55.2,51.0,44.2,95,81,49,29.42,29.21,0,0,0,0.00
2013-5-1,77.4,60.7,52.3,51.9,36.0,20.7,92,48,16,29.50,29.39,0,0,0,0.00
2013-5-2,76.1,58.7,48.2,39.5,31.8,25.5,69,39,18,29.53,29.42,0,0,0,0.00
2013-5-3,73.8,57.6,49.5,45.4,33.8,21.4,83,44,18,29.47,29.36,0,0,0,0.00
2013-5-4,68.4,54.0,43.7,36.0,31.1,19.5,66,43,25,29.42,29.30,0,0,0,0.00
2013-5-5,66.0,49.2,43.2,31.2,25.7,18.8,58,41,25,29.33,29.30,0,0,0,0.00
2013-5-6,65.8,65.8,65.8,29.0,29.0,29.0,25,25,25,29.30,29.30,0,0,0,0.00
2013-5-7,65.8,65.8,65.8,29.0,29.0,29.0,25,25,25,29.30,29.30,0,0,0,0.00
2013-5-8,65.8,65.8,65.8,29.0,29.0,29.0,25,25,25,29.30,29.30,0,0,0,0.00
2013-5-9,65.8,65.8,65.8,29.0,29.0,29.0,25,25,25,29.30,29.30,0,0,0,0.00
2013-5-10,65.8,65.8,65.8,29.0,29.0,29.0,25,25,25,29.30,29.30,0,0,0,0.00
2013-5-11,65.8,65.8,65.8,29.0,29.0,29.0,25,25,25,29.30,29.30,0,0,0,0.00
2013-5-16,68.9,64.1,67.5,53.2,42.9,-99.9,58,53,54,29.12,29.12,0,0,0,0.00
2013-5-17,88.9,72.6,62.1,57.7,44.3,32.8,83,40,15,29.30,29.09,0,0,0,0.00
2013-5-18,64.4,61.5,59.7,61.2,57.8,53.5,96,88,75,29.36,29.27,0,0,0,0.00
2013-5-19,68.4,63.2,59.5,64.8,61.2,59.0,98,93,81,29.33,29.21,0,0,0,0.00
2013-5-20,88.7,70.5,63.5,69.9,61.4,48.1,98,78,29,29.27,29.15,0,0,0,0.00
2013-5-21,92.7,74.3,65.5,68.1,61.1,50.1,98,69,25,29.18,29.06,0,0,0,0.00
2013-5-22,93.0,76.5,66.7,66.8,57.9,45.8,93,58,22,29.12,29.00,4,1,6,0.00
2013-5-23,83.7,69.8,62.2,64.3,59.1,48.8,91,71,32,29.09,28.91,5,2,6,0.00
2013-5-24,71.1,60.4,48.6,59.3,37.3,16.8,89,48,20,29.30,28.94,6,2,9,0.00
2013-5-25,77.2,55.6,40.5,26.3,19.8,15.3,41,26,15,29.36,29.27,6,2,9,0.00
2013-5-26,86.7,63.6,50.0,30.0,21.5,14.9,35,21,13,29.39,29.27,4,2,6,0.00
2013-5-27,67.5,60.9,53.1,37.4,26.6,14.3,41,28,16,29.42,29.33,2,0,3,0.00
2013-5-28,90.5,70.8,56.1,50.6,42.5,33.8,57,38,19,29.36,29.21,5,2,7,0.00
2013-5-29,95.0,78.3,68.2,53.0,47.7,38.9,58,37,17,29.30,29.24,5,2,6,0.00
2013-5-30,98.4,80.0,71.1,52.8,46.3,39.0,43,32,16,29.36,29.30,4,2,6,0.00
2013-5-31,95.7,79.4,70.3,48.6,44.6,39.8,40,31,17,29.33,29.21,4,2,6,0.00
2013-6-1,96.8,79.8,69.3,54.9,48.3,42.0,59,35,17,29.24,29.12,5,2,6,0.00
2013-6-2,81.7,73.7,69.1,63.0,56.3,48.0,78,56,40,29.15,29.03,6,3,6,0.00
2013-6-3,86.0,72.5,66.4,69.0,58.6,45.0,98,66,29,29.15,29.00,4,1,5,0.46
2013-6-4,87.6,69.1,59.9,54.3,37.1,26.2,63,35,13,29.30,29.12,3,1,4,0.08
2013-6-5,85.1,70.0,62.1,45.5,38.1,26.6,45,32,20,29.33,29.21,3,1,4,0.00
2013-6-6,66.0,63.5,61.2,64.0,52.6,37.2,98,71,37,29.21,29.00,3,1,4,1.00
2013-6-7,67.8,65.6,63.3,67.2,64.8,61.4,98,97,81,29.00,28.80,3,1,4,1.41
2013-6-8,91.8,72.2,64.6,62.1,51.9,38.0,84,54,18,29.24,28.94,4,1,5,1.41
2013-6-9,86.4,71.5,65.7,67.4,58.8,49.7,95,66,39,29.33,29.24,4,1,4,1.41
2013-6-10,84.9,71.0,66.7,75.1,67.3,57.8,98,90,43,29.27,28.97,5,1,8,1.41
2013-6-11,89.6,74.3,66.2,66.5,52.3,39.1,98,53,19,29.06,29.00,4,2,6,1.41
2013-6-12,99.0,80.4,69.6,60.0,49.6,41.9,53,36,17,29.09,28.97,4,1,4,1.41
2013-6-13,90.5,78.5,72.0,63.5,54.0,44.9,70,43,29,29.00,28.74,6,1,6,1.41
2013-6-14,86.5,72.8,63.0,43.0,37.5,32.6,44,29,18,29.15,28.94,4,2,6,1.41
2013-6-15,92.1,76.4,72.0,41.1,34.4,-99.9,32,24,14,29.18,29.15,4,1,4,0.00
2013-6-16,88.9,74.7,66.9,61.9,47.3,38.5,77,39,21,29.18,29.09,5,1,6,0.00
2013-6-17,93.0,74.0,66.9,61.9,54.8,-99.9,84,55,20,29.15,29.06,4,1,6,0.00
2013-6-18,73.8,68.9,65.3,68.0,63.7,58.4,92,84,69,29.09,28.97,3,0,3,0.00
2013-6-19,78.3,68.6,63.3,63.5,58.2,48.2,94,72,39,29.30,29.06,3,0,4,0.00
2013-6-20,87.1,70.8,64.4,62.7,51.6,40.6,92,55,22,29.42,29.30,4,1,6,0.00
2013-6-21,90.0,73.5,63.3,45.5,37.7,32.9,44,28,18,29.45,29.36,3,1,4,0.00
2013-6-22,94.3,74.3,63.9,61.3,54.1,40.4,78,54,18,29.42,29.30,4,1,5,0.00
2013-6-23,93.4,76.5,68.4,68.0,59.6,47.1,91,61,25,29.36,29.27,4,1,4,0.00
2013-6-24,95.2,78.3,72.5,64.8,59.1,46.5,75,54,24,29.33,29.21,4,1,5,0.00
2013-6-25,98.2,81.1,71.2,62.7,54.9,43.5,70,44,17,29.24,29.09,3,1,4,0.00
2013-6-26,97.9,76.2,68.0,67.4,58.3,41.6,93,58,18,29.12,29.03,4,1,6,0.00
2013-6-27,85.3,75.8,68.0,70.9,59.9,-99.9,98,62,35,29.03,28.85,4,1,6,0.00
2013-6-28,75.2,74.4,72.9,54.9,53.3,52.4,52,48,47,28.85,28.80,3,2,5,0.00
2013-6-29,74.7,74.7,74.7,53.1,53.1,53.1,47,47,47,28.80,28.80,2,2,3,0.00
2013-6-30,74.7,74.7,74.7,53.1,53.1,53.1,47,47,47,28.80,28.80,2,2,3,0.00
2013-7-1,74.7,74.7,74.7,53.1,53.1,53.1,47,47,47,28.80,28.80,2,2,3,0.00
2013-7-2,74.7,74.7,74.7,53.1,53.1,53.1,47,47,47,28.80,28.80,2,2,3,0.00
2013-7-3,74.7,74.7,74.7,53.1,53.1,53.1,47,47,47,28.80,28.80,2,2,3,0.00
2013-7-4,74.7,74.7,74.7,53.1,53.1,53.1,47,47,47,28.80,28.80,2,2,3,0.00
2013-7-5,74.7,74.7,74.7,53.1,53.1,53.1,47,47,47,28.80,28.80,2,2,3,0.00
2013-7-6,74.7,74.7,74.7,53.1,53.1,53.1,47,47,47,28.80,28.80,2,2,3,0.00
2013-7-7,74.7,74.7,74.7,53.1,53.1,53.1,47,47,47,28.80,28.80,2,2,3,0.00
2013-7-8,74.7,74.7,74.7,53.1,53.1,53.1,47,47,47,28.80,28.80,2,2,3,0.00
2013-7-9,74.7,74.7,74.7,53.1,53.1,53.1,47,47,47,28.80,28.80,2,2,3,0.00
2013-7-10,74.7,74.7,74.7,53.1,53.1,53.1,47,47,47,28.80,28.80,2,2,3,0.00
2013-7-11,74.7,74.7,74.7,53.1,53.1,53.1,47,47,47,28.80,28.80,2,2,3,0.00
2013-7-12,74.7,74.7,74.7,53.1,53.1,53.1,47,47,47,28.80,28.80,2,2,3,0.00
2013-7-13,74.7,74.7,74.7,53.1,53.1,53.1,47,47,47,28.80,28.80,2,2,3,0.00
2013-7-14,74.7,74.7,74.7,53.1,53.1,53.1,47,47,47,28.80,28.80,2,2,3,0.00
2013-7-15,74.7,74.7,74.7,53.1,53.1,53.1,47,47,47,28.80,28.80,2,2,3,0.00
2013-12-23,62.1,50.6,36.1,61.5,34.9,-99.9,98,58,37,29.33,29.09,0,0,0,0.21
2013-12-24,41.0,32.0,21.9,15.7,6.9,-7.6,53,35,22,29.56,29.30,0,0,0,0.04
2013-12-25,34.0,23.9,16.9,1.9,-4.1,-9.0,36,28,22,29.62,29.45,0,0,0,0.00
2013-12-26,48.4,35.3,23.4,8.7,2.3,-2.9,33,25,19,29.45,29.30,0,0,0,0.00
2013-12-27,52.7,39.9,32.0,10.7,3.3,-1.4,23,21,18,29.53,29.42,0,0,0,0.00
2013-12-28,59.4,47.4,38.1,14.6,7.5,1.7,21,19,17,29.45,29.24,0,0,0,0.00
2013-12-29,51.3,45.3,40.1,48.2,31.0,6.6,98,62,19,29.24,28.74,0,0,0,1.45
2013-12-30,50.2,42.3,32.7,25.8,18.5,12.3,49,39,26,29.27,28.97,0,0,0,0.25
2013-12-31,46.9,35.5,27.5,17.4,8.0,-1.1,55,34,19,29.42,29.24,0,0,0,0.00
2014-1-1,49.1,37.1,28.4,12.1,3.9,-2.0,32,25,19,29.47,29.24,0,0,0,0.00
2014-1-2,41.7,34.3,30.7,25.7,14.4,6.2,79,46,29,29.24,28.74,0,0,0,0.04